createdAt,value
2022-07-25T00:00:26.099Z,22.13
2022-07-25T00:02:52.546Z,22.04
2022-07-25T00:05:20.313Z,22.08
2022-07-25T00:07:46.819Z,22.03
2022-07-25T00:10:14.584Z,22.02
2022-07-25T00:12:42.649Z,22.07
2022-07-25T00:15:09.911Z,21.99
2022-07-25T00:17:36.825Z,21.97
2022-07-25T00:20:04.682Z,21.95
2022-07-25T00:22:31.340Z,21.90
2022-07-25T00:24:57.823Z,21.86
2022-07-25T00:27:25.649Z,21.88
2022-07-25T00:29:52.121Z,21.85
2022-07-25T00:32:18.594Z,21.82
2022-07-25T00:34:45.369Z,21.80
2022-07-25T00:37:11.894Z,21.81
2022-07-25T00:39:38.732Z,21.75
2022-07-25T00:42:06.591Z,21.78
2022-07-25T00:44:34.393Z,21.77
2022-07-25T00:47:01.444Z,21.73
2022-07-25T00:49:28.130Z,21.77
2022-07-25T00:51:55.111Z,21.74
2022-07-25T00:54:22.143Z,21.73
2022-07-25T00:56:49.804Z,21.73
2022-07-25T00:59:17.164Z,21.74
2022-07-25T01:01:45.575Z,21.71
2022-07-25T01:04:12.216Z,21.72
2022-07-25T01:06:38.911Z,21.73
2022-07-25T01:09:05.578Z,21.71
2022-07-25T01:11:33.359Z,21.72
2022-07-25T01:13:59.890Z,21.72
2022-07-25T01:16:26.533Z,21.66
2022-07-25T01:18:53.165Z,21.59
2022-07-25T01:21:19.638Z,21.48
2022-07-25T01:23:46.104Z,21.42
2022-07-25T01:26:12.676Z,21.33
2022-07-25T01:28:39.204Z,21.29
2022-07-25T01:31:06.091Z,21.18
2022-07-25T01:33:34.944Z,21.13
2022-07-25T01:36:01.504Z,21.06
2022-07-25T01:38:28.417Z,21.07
2022-07-25T01:40:54.952Z,21.07
2022-07-25T01:43:21.466Z,21.04
2022-07-25T01:45:48.195Z,21.07
2022-07-25T01:48:14.672Z,20.98
2022-07-25T01:50:43.566Z,21.01
2022-07-25T01:53:10.054Z,21.03
2022-07-25T01:55:36.624Z,21.03
2022-07-25T01:58:03.388Z,21.01
2022-07-25T02:00:29.944Z,20.96
2022-07-25T02:03:15.245Z,21.03
2022-07-25T02:05:41.852Z,20.99
2022-07-25T02:08:08.527Z,21.05
2022-07-25T02:10:37.927Z,21.08
2022-07-25T02:13:04.432Z,21.10
2022-07-25T02:15:31.057Z,21.13
2022-07-25T02:17:57.494Z,21.11
2022-07-25T02:20:24.163Z,21.13
2022-07-25T02:22:50.711Z,21.10
2022-07-25T02:25:17.203Z,21.04
2022-07-25T02:27:43.805Z,21.09
2022-07-25T02:30:10.746Z,21.11
2022-07-25T02:32:37.316Z,21.04
2022-07-25T02:35:05.466Z,20.98
2022-07-25T02:37:39.660Z,21.04
2022-07-25T02:40:07.022Z,21.07
2022-07-25T02:42:33.527Z,20.96
2022-07-25T02:45:00.049Z,21.02
2022-07-25T02:47:26.584Z,21.04
2022-07-25T02:49:53.216Z,21.01
2022-07-25T02:52:19.637Z,21.03
2022-07-25T02:54:46.207Z,21.08
2022-07-25T02:57:12.856Z,21.14
2022-07-25T02:59:39.336Z,21.04
2022-07-25T03:02:05.967Z,21.02
2022-07-25T03:04:33.452Z,21.03
2022-07-25T03:07:00.128Z,21.03
2022-07-25T03:09:26.957Z,20.96
2022-07-25T03:11:53.521Z,20.99
2022-07-25T03:14:20.496Z,21.02
2022-07-25T03:16:47.045Z,21.00
2022-07-25T03:19:14.368Z,20.96
2022-07-25T03:21:40.916Z,20.91
2022-07-25T03:24:07.744Z,20.93
2022-07-25T03:26:34.612Z,20.98
2022-07-25T03:29:01.193Z,20.98
2022-07-25T03:31:28.600Z,20.97
2022-07-25T03:33:55.172Z,21.00
2022-07-25T03:36:21.785Z,21.01
2022-07-25T03:38:48.412Z,21.02
2022-07-25T03:41:14.916Z,21.03
2022-07-25T03:43:41.552Z,21.00
2022-07-25T03:46:08.261Z,21.07
2022-07-25T03:48:34.893Z,21.07
2022-07-25T03:51:06.555Z,21.13
2022-07-25T03:53:33.959Z,21.08
2022-07-25T03:56:00.575Z,21.09
2022-07-25T03:58:27.183Z,21.06
2022-07-25T04:00:53.630Z,21.14
2022-07-25T04:03:21.659Z,21.16
2022-07-25T04:05:48.086Z,21.10
2022-07-25T04:08:15.094Z,21.12
2022-07-25T04:10:41.603Z,21.14
2022-07-25T04:13:08.360Z,21.17
2022-07-25T04:15:34.862Z,21.12
2022-07-25T04:18:01.450Z,21.15
2022-07-25T04:20:29.324Z,21.14
2022-07-25T04:22:55.888Z,21.12
2022-07-25T04:25:22.590Z,21.15
2022-07-25T04:27:49.113Z,21.16
2022-07-25T04:30:24.405Z,21.16
2022-07-25T04:32:51.932Z,21.17
2022-07-25T04:35:18.648Z,21.17
2022-07-25T04:37:45.196Z,21.19
2022-07-25T04:40:12.316Z,21.22
2022-07-25T04:42:38.790Z,21.25
2022-07-25T04:45:05.726Z,21.20
2022-07-25T04:47:32.320Z,21.21
2022-07-25T04:49:58.921Z,21.30
2022-07-25T04:52:25.415Z,21.36
2022-07-25T04:54:52.020Z,21.43
2022-07-25T04:57:18.949Z,21.47
2022-07-25T04:59:45.563Z,21.51
2022-07-25T05:02:12.206Z,21.59
2022-07-25T05:04:43.440Z,21.68
2022-07-25T05:07:11.672Z,21.68
2022-07-25T05:09:38.338Z,21.83
2022-07-25T05:12:04.939Z,21.84
2022-07-25T05:14:31.508Z,21.88
2022-07-25T05:16:58.036Z,21.98
2022-07-25T05:19:24.592Z,22.04
2022-07-25T05:21:51.069Z,22.13
2022-07-25T05:24:17.663Z,22.25
2022-07-25T05:26:44.311Z,22.85
2022-07-25T05:29:10.818Z,25.22
2022-07-25T05:31:37.429Z,27.29
2022-07-25T05:34:05.861Z,28.52
2022-07-25T05:36:33.115Z,28.98
2022-07-25T05:39:00.222Z,29.54
2022-07-25T05:41:26.843Z,29.72
2022-07-25T05:43:53.466Z,29.30
2022-07-25T05:46:20.162Z,29.51
2022-07-25T05:48:46.853Z,29.38
2022-07-25T05:51:13.586Z,29.41
2022-07-25T05:53:40.089Z,29.28
2022-07-25T05:56:07.056Z,29.24
2022-07-25T05:58:33.568Z,29.36
2022-07-25T06:01:00.269Z,29.35
2022-07-25T06:03:26.886Z,29.34
2022-07-25T06:05:56.206Z,29.26
2022-07-25T06:08:22.714Z,29.26
2022-07-25T06:10:49.336Z,29.18
2022-07-25T06:13:15.838Z,29.24
2022-07-25T06:15:42.534Z,29.38
2022-07-25T06:18:09.162Z,29.37
2022-07-25T06:20:35.793Z,29.25
2022-07-25T06:23:03.798Z,28.90
2022-07-25T06:25:30.957Z,28.72
2022-07-25T06:27:58.393Z,28.50
2022-07-25T06:30:24.950Z,28.13
2022-07-25T06:32:51.645Z,28.05
2022-07-25T06:35:18.272Z,27.97
2022-07-25T06:37:45.149Z,27.84
2022-07-25T06:40:12.000Z,27.87
2022-07-25T06:42:39.926Z,27.72
2022-07-25T06:45:09.628Z,27.56
2022-07-25T06:47:37.398Z,27.42
2022-07-25T06:50:09.003Z,27.41
2022-07-25T06:52:38.138Z,27.39
2022-07-25T06:55:06.061Z,27.37
2022-07-25T06:57:32.555Z,27.46
2022-07-25T06:59:59.173Z,27.45
2022-07-25T07:02:25.592Z,27.47
2022-07-25T07:04:52.276Z,27.50
2022-07-25T07:07:18.840Z,27.52
2022-07-25T07:09:45.477Z,27.60
2022-07-25T07:12:11.932Z,27.67
2022-07-25T07:14:39.298Z,27.62
2022-07-25T07:17:05.820Z,27.57
2022-07-25T07:19:33.229Z,27.63
2022-07-25T07:21:59.735Z,27.78
2022-07-25T07:24:26.472Z,27.88
2022-07-25T07:26:54.264Z,27.88
2022-07-25T07:29:21.709Z,27.97
2022-07-25T07:31:50.936Z,28.14
2022-07-25T07:34:17.493Z,28.33
2022-07-25T07:36:44.202Z,28.19
2022-07-25T07:39:11.052Z,28.00
2022-07-25T07:41:37.747Z,27.80
2022-07-25T07:44:05.590Z,27.84
2022-07-25T07:46:33.401Z,27.73
2022-07-25T07:49:00.017Z,27.73
2022-07-25T07:51:26.633Z,27.76
2022-07-25T07:54:11.748Z,27.82
2022-07-25T07:56:39.033Z,27.80
2022-07-25T07:59:06.092Z,27.76
2022-07-25T08:01:32.945Z,27.68
2022-07-25T08:03:59.516Z,27.80
2022-07-25T08:06:27.848Z,27.94
2022-07-25T08:08:54.852Z,28.13
2022-07-25T08:11:21.554Z,28.21
2022-07-25T08:13:48.101Z,28.37
2022-07-25T08:16:14.784Z,28.42
2022-07-25T08:18:41.724Z,28.54
2022-07-25T08:21:09.020Z,28.67
2022-07-25T08:23:39.256Z,28.82
2022-07-25T08:26:07.519Z,28.94
2022-07-25T08:28:34.087Z,29.18
2022-07-25T08:31:01.660Z,29.34
2022-07-25T08:33:29.803Z,29.32
2022-07-25T08:35:58.605Z,29.39
2022-07-25T08:38:27.731Z,29.49
2022-07-25T08:40:56.410Z,29.66
2022-07-25T08:43:23.696Z,29.90
2022-07-25T08:45:54.941Z,29.92
2022-07-25T08:48:25.988Z,29.83
2022-07-25T08:50:54.295Z,29.81
2022-07-25T08:53:37.914Z,29.77
2022-07-25T08:56:13.350Z,29.69
2022-07-25T08:58:44.582Z,29.72
2022-07-25T09:01:13.871Z,29.77
2022-07-25T09:03:42.848Z,29.89
2022-07-25T09:06:22.250Z,30.08
2022-07-25T09:08:54.280Z,30.18
2022-07-25T09:11:31.946Z,30.21
2022-07-25T09:14:04.492Z,30.23
2022-07-25T09:16:35.617Z,30.30
2022-07-25T09:19:08.209Z,30.24
2022-07-25T09:21:34.971Z,30.21
2022-07-25T09:24:11.825Z,30.20
2022-07-25T09:26:50.734Z,30.23
2022-07-25T09:29:25.724Z,30.27
2022-07-25T09:31:54.636Z,30.26
2022-07-25T09:34:40.599Z,30.29
2022-07-25T09:37:10.053Z,30.28
2022-07-25T09:39:46.073Z,30.30
2022-07-25T09:42:25.885Z,30.29
2022-07-25T09:45:01.439Z,30.17
2022-07-25T09:47:28.126Z,30.10
2022-07-25T09:49:55.111Z,30.26
2022-07-25T09:52:21.923Z,30.52
2022-07-25T09:54:49.314Z,30.56
2022-07-25T09:57:16.538Z,30.43
2022-07-25T09:59:44.537Z,30.33
2022-07-25T10:02:37.096Z,30.32
2022-07-25T10:05:13.833Z,30.32
2022-07-25T10:07:51.164Z,30.34
2022-07-25T10:10:31.105Z,30.34
2022-07-25T10:13:11.076Z,30.35
2022-07-25T10:15:52.256Z,30.40
2022-07-25T10:18:21.791Z,30.08
2022-07-25T10:20:50.681Z,30.14
2022-07-25T10:23:23.090Z,30.38
2022-07-25T10:26:22.205Z,30.77
2022-07-25T10:28:51.348Z,31.12
2022-07-25T10:31:22.487Z,31.06
2022-07-25T10:34:00.515Z,30.91
2022-07-25T10:36:42.074Z,30.84
2022-07-25T10:39:10.683Z,30.91
2022-07-25T10:41:44.490Z,30.93
2022-07-25T10:44:16.012Z,31.09
2022-07-25T10:46:44.787Z,30.91
2022-07-25T10:49:29.056Z,30.44
2022-07-25T10:52:01.119Z,30.03
2022-07-25T10:54:36.531Z,29.71
2022-07-25T10:57:05.795Z,29.41
2022-07-25T10:59:37.886Z,29.10
2022-07-25T11:02:06.767Z,28.76
2022-07-25T11:04:34.043Z,28.24
2022-07-25T11:07:12.337Z,27.75
2022-07-25T11:09:42.900Z,27.51
2022-07-25T11:12:09.854Z,27.40
2022-07-25T11:14:41.261Z,27.24
2022-07-25T11:17:22.705Z,27.08
2022-07-25T11:20:00.048Z,26.93
2022-07-25T11:22:28.591Z,26.86
2022-07-25T11:24:57.095Z,26.80
2022-07-25T11:27:35.817Z,26.84
2022-07-25T11:30:14.192Z,26.71
2022-07-25T11:32:43.653Z,26.62
2022-07-25T11:35:11.588Z,26.67
2022-07-25T11:37:41.573Z,26.98
2022-07-25T11:40:09.285Z,27.72
2022-07-25T11:42:44.436Z,28.18
2022-07-25T11:45:29.444Z,28.42
2022-07-25T11:48:05.183Z,28.65
2022-07-25T11:50:33.818Z,29.04
2022-07-25T11:53:01.614Z,29.20
2022-07-25T11:55:30.869Z,29.20
2022-07-25T11:58:00.978Z,29.20
2022-07-25T12:00:29.059Z,29.34
2022-07-25T12:03:07.902Z,29.38
2022-07-25T12:05:34.587Z,29.51
2022-07-25T12:08:23.060Z,29.51
2022-07-25T12:10:51.439Z,29.50
2022-07-25T12:13:24.359Z,29.51
2022-07-25T12:15:50.926Z,29.46
2022-07-25T12:18:18.478Z,29.48
2022-07-25T12:20:45.026Z,29.47
2022-07-25T12:23:13.062Z,29.20
2022-07-25T12:25:46.577Z,28.88
2022-07-25T12:28:14.221Z,28.75
2022-07-25T12:30:43.037Z,28.56
2022-07-25T12:33:10.145Z,28.51
2022-07-25T12:35:39.432Z,28.63
2022-07-25T12:38:06.060Z,28.72
2022-07-25T12:40:33.036Z,28.88
2022-07-25T12:43:01.066Z,29.08
2022-07-25T12:45:27.992Z,29.42
2022-07-25T12:47:55.043Z,29.55
2022-07-25T12:50:21.958Z,29.62
2022-07-25T12:52:48.649Z,29.56
2022-07-25T12:55:17.482Z,29.27
2022-07-25T12:57:45.131Z,29.40
2022-07-25T13:00:15.098Z,29.94
2022-07-25T13:02:42.404Z,29.94
2022-07-25T13:05:10.118Z,29.95
2022-07-25T13:07:37.037Z,29.98
2022-07-25T13:10:04.070Z,30.16
2022-07-25T13:12:31.126Z,30.26
2022-07-25T13:14:57.710Z,30.16
2022-07-25T13:17:27.453Z,29.74
2022-07-25T13:19:56.374Z,29.96
2022-07-25T13:22:23.079Z,30.08
2022-07-25T13:24:49.719Z,29.47
2022-07-25T13:27:18.507Z,29.18
2022-07-25T13:29:45.375Z,28.51
2022-07-25T13:32:12.088Z,28.11
2022-07-25T13:34:39.402Z,27.62
2022-07-25T13:37:06.217Z,27.37
2022-07-25T13:39:33.725Z,27.16
2022-07-25T13:42:00.265Z,26.53
2022-07-25T13:44:26.833Z,25.95
2022-07-25T13:46:53.449Z,25.49
2022-07-25T13:49:20.061Z,25.53
2022-07-25T13:51:47.500Z,25.41
2022-07-25T13:54:14.243Z,25.35
2022-07-25T13:56:42.388Z,25.63
2022-07-25T13:59:10.096Z,26.25
2022-07-25T14:01:37.304Z,26.85
2022-07-25T14:04:04.025Z,27.23
2022-07-25T14:06:33.321Z,27.59
2022-07-25T14:09:00.167Z,27.81
2022-07-25T14:11:30.447Z,27.71
2022-07-25T14:13:57.969Z,27.49
2022-07-25T14:16:24.524Z,27.29
2022-07-25T14:18:51.263Z,27.18
2022-07-25T14:21:18.248Z,27.10
2022-07-25T14:23:44.807Z,26.90
2022-07-25T14:26:11.426Z,26.86
2022-07-25T14:28:39.012Z,26.99
2022-07-25T14:31:05.543Z,27.14
2022-07-25T14:33:32.063Z,27.47
2022-07-25T14:35:59.234Z,27.46
2022-07-25T14:38:25.832Z,27.65
2022-07-25T14:40:52.328Z,28.13
2022-07-25T14:43:19.100Z,28.04
2022-07-25T14:45:45.681Z,28.15
2022-07-25T14:48:12.393Z,28.22
2022-07-25T14:50:38.910Z,28.39
2022-07-25T14:53:05.651Z,28.48
2022-07-25T14:55:32.186Z,28.30
2022-07-25T14:58:02.483Z,28.30
2022-07-25T15:00:30.059Z,28.43
2022-07-25T15:02:57.046Z,28.33
2022-07-25T15:05:23.687Z,28.24
2022-07-25T15:07:51.375Z,28.11
2022-07-25T15:10:18.108Z,28.11
2022-07-25T15:12:44.607Z,28.18
2022-07-25T15:15:11.441Z,28.15
2022-07-25T15:17:38.607Z,27.59
2022-07-25T15:20:05.810Z,27.29
2022-07-25T15:22:32.352Z,26.93
2022-07-25T15:25:27.511Z,27.10
2022-07-25T15:27:45.289Z,27.09
2022-07-25T15:30:13.031Z,27.00
2022-07-25T15:32:40.106Z,26.85
2022-07-25T15:35:07.629Z,26.71
2022-07-25T15:37:34.237Z,26.81
2022-07-25T15:40:00.892Z,26.73
2022-07-25T15:42:29.363Z,26.55
2022-07-25T15:45:22.298Z,26.55
2022-07-25T15:47:46.265Z,26.43
2022-07-25T15:50:18.216Z,26.28
2022-07-25T15:52:44.866Z,26.11
2022-07-25T15:55:11.478Z,25.98
2022-07-25T15:57:38.287Z,25.98
2022-07-25T16:00:07.578Z,25.99
2022-07-25T16:02:34.682Z,25.96
2022-07-25T16:05:02.090Z,25.91
2022-07-25T16:07:28.534Z,25.81
2022-07-25T16:09:56.586Z,25.86
2022-07-25T16:12:28.443Z,25.79
2022-07-25T16:14:55.449Z,25.72
2022-07-25T16:17:22.280Z,25.49
2022-07-25T16:19:48.860Z,25.22
2022-07-25T16:22:16.553Z,24.95
2022-07-25T16:24:43.248Z,24.79
2022-07-25T16:27:10.078Z,24.81
2022-07-25T16:29:37.479Z,24.77
2022-07-25T16:32:04.549Z,24.66
2022-07-25T16:34:31.833Z,24.58
2022-07-25T16:36:58.720Z,24.69
2022-07-25T16:39:26.312Z,24.56
2022-07-25T16:41:53.118Z,24.61
2022-07-25T16:44:20.008Z,24.54
2022-07-25T16:46:46.645Z,24.67
2022-07-25T16:49:15.431Z,24.52
2022-07-25T16:51:45.489Z,24.46
2022-07-25T16:54:12.414Z,24.48
2022-07-25T16:56:39.768Z,24.61
2022-07-25T16:59:08.263Z,24.72
2022-07-25T17:01:35.354Z,24.62
2022-07-25T17:04:02.038Z,24.41
2022-07-25T17:06:28.670Z,24.35
2022-07-25T17:08:55.298Z,24.25
2022-07-25T17:11:22.429Z,24.12
2022-07-25T17:13:48.988Z,24.19
2022-07-25T17:16:15.721Z,24.11
2022-07-25T17:18:42.283Z,24.23
2022-07-25T17:21:09.547Z,24.26
2022-07-25T17:23:36.463Z,24.12
2022-07-25T17:26:05.457Z,24.18
2022-07-25T17:28:32.341Z,24.20
2022-07-25T17:30:58.931Z,24.09
2022-07-25T17:33:25.606Z,24.08
2022-07-25T17:35:52.410Z,24.11
2022-07-25T17:38:23.750Z,24.25
2022-07-25T17:40:52.420Z,24.34
2022-07-25T17:43:19.015Z,24.43
2022-07-25T17:45:46.528Z,24.46
2022-07-25T17:48:13.263Z,24.59
2022-07-25T17:50:39.746Z,24.50
2022-07-25T17:53:06.285Z,24.50
2022-07-25T17:55:38.179Z,24.34
2022-07-25T17:58:05.389Z,24.17
2022-07-25T18:00:32.676Z,24.08
2022-07-25T18:02:59.722Z,23.98
2022-07-25T18:05:26.677Z,23.98
2022-07-25T18:07:53.864Z,23.87
2022-07-25T18:10:23.693Z,23.72
2022-07-25T18:12:50.577Z,23.61
2022-07-25T18:15:17.560Z,23.52
2022-07-25T18:17:45.509Z,23.51
2022-07-25T18:20:13.459Z,23.49
2022-07-25T18:22:41.393Z,23.49
2022-07-25T18:25:11.231Z,23.48
2022-07-25T18:27:40.725Z,23.49
2022-07-25T18:30:08.762Z,23.57
2022-07-25T18:32:35.825Z,23.50
2022-07-25T18:35:04.226Z,23.54
2022-07-25T18:37:31.168Z,23.51
2022-07-25T18:39:57.954Z,23.51
2022-07-25T18:42:29.392Z,23.36
2022-07-25T18:44:56.776Z,23.28
2022-07-25T18:47:26.482Z,23.19
2022-07-25T18:49:59.715Z,23.11
2022-07-25T18:52:26.696Z,22.95
2022-07-25T18:54:53.232Z,22.97
2022-07-25T18:57:19.948Z,22.84
2022-07-25T18:59:46.486Z,22.81
2022-07-25T19:02:13.338Z,22.78
2022-07-25T19:04:40.224Z,22.69
2022-07-25T19:07:07.489Z,22.63
2022-07-25T19:09:34.029Z,22.48
2022-07-25T19:12:01.361Z,22.36
2022-07-25T19:14:28.786Z,22.27
2022-07-25T19:16:55.528Z,22.24
2022-07-25T19:19:22.061Z,22.09
2022-07-25T19:21:48.936Z,22.10
2022-07-25T19:24:15.858Z,22.06
2022-07-25T19:26:42.630Z,21.99
2022-07-25T19:29:10.178Z,21.97
2022-07-25T19:31:40.234Z,21.97
2022-07-25T19:34:08.737Z,21.83
2022-07-25T19:36:35.611Z,21.80
2022-07-25T19:39:02.727Z,21.73
2022-07-25T19:41:30.521Z,21.60
2022-07-25T19:43:57.244Z,21.49
2022-07-25T19:46:25.039Z,21.48
2022-07-25T19:48:52.012Z,21.40
2022-07-25T19:53:45.204Z,21.31
2022-07-25T19:56:11.669Z,21.22
2022-07-25T19:58:41.085Z,21.12
2022-07-25T20:01:10.063Z,21.05
2022-07-25T20:03:36.861Z,21.04
2022-07-25T20:06:07.825Z,20.95
2022-07-25T20:08:35.532Z,20.86
2022-07-25T20:11:02.075Z,20.84
2022-07-25T20:13:29.631Z,20.79
2022-07-25T20:15:56.315Z,20.78
2022-07-25T20:18:22.756Z,20.71
2022-07-25T20:20:49.292Z,20.63
2022-07-25T20:23:15.911Z,20.54
2022-07-25T20:25:42.599Z,20.45
2022-07-25T20:28:09.251Z,20.43
2022-07-25T20:30:35.919Z,20.38
2022-07-25T20:33:05.432Z,20.31
2022-07-25T20:35:36.517Z,20.27
2022-07-25T20:38:03.266Z,20.21
2022-07-25T20:40:36.411Z,20.18
2022-07-25T20:43:04.500Z,20.17
2022-07-25T20:45:31.002Z,20.14
2022-07-25T20:47:57.847Z,20.13
2022-07-25T20:50:24.409Z,20.22
2022-07-25T20:52:51.133Z,20.13
2022-07-25T20:55:17.680Z,20.02
2022-07-25T20:57:48.657Z,19.94
2022-07-25T21:00:17.030Z,19.92
2022-07-25T21:02:43.739Z,20.03
2022-07-25T21:05:10.289Z,19.96
2022-07-25T21:07:36.967Z,20.02
2022-07-25T21:10:04.622Z,19.93
2022-07-25T21:12:32.913Z,19.89
2022-07-25T21:15:01.043Z,19.90
2022-07-25T21:17:27.651Z,19.79
2022-07-25T21:19:54.190Z,19.72
2022-07-25T21:22:20.815Z,19.66
2022-07-25T21:24:49.286Z,19.61
2022-07-25T21:27:16.729Z,19.52
2022-07-25T21:29:44.367Z,19.53
2022-07-25T21:32:13.597Z,19.55
2022-07-25T21:34:41.399Z,19.45
2022-07-25T21:37:08.264Z,19.35
2022-07-25T21:39:35.236Z,19.27
2022-07-25T21:42:01.805Z,19.24
2022-07-25T21:44:29.211Z,19.11
2022-07-25T21:46:55.751Z,19.13
2022-07-25T21:49:42.715Z,19.02
2022-07-25T21:52:13.398Z,19.04
2022-07-25T21:54:42.775Z,19.00
2022-07-25T21:57:13.942Z,19.00
2022-07-25T21:59:44.957Z,18.93
2022-07-25T22:02:12.188Z,18.81
2022-07-25T22:04:39.449Z,18.71
2022-07-25T22:07:06.293Z,18.66
2022-07-25T22:09:32.925Z,18.63
2022-07-25T22:11:59.552Z,18.58
2022-07-25T22:14:26.325Z,18.58
2022-07-25T22:16:53.269Z,18.60
2022-07-25T22:19:22.475Z,18.61
2022-07-25T22:21:50.237Z,18.69
2022-07-25T22:24:17.054Z,18.69
2022-07-25T22:26:43.786Z,18.69
2022-07-25T22:29:11.345Z,18.77
2022-07-25T22:31:41.129Z,18.83
2022-07-25T22:34:08.160Z,18.84
2022-07-25T22:36:34.825Z,18.86
2022-07-25T22:39:01.524Z,18.84
2022-07-25T22:41:27.968Z,18.90
2022-07-25T22:43:56.529Z,18.97
2022-07-25T22:46:25.268Z,18.95
2022-07-25T22:48:52.000Z,18.87
2022-07-25T22:51:18.514Z,18.92
2022-07-25T22:53:45.186Z,18.96
2022-07-25T22:56:11.695Z,18.87
2022-07-25T22:58:38.273Z,18.94
2022-07-25T23:01:04.868Z,19.00
2022-07-25T23:03:32.794Z,19.04
2022-07-25T23:05:59.748Z,19.06
2022-07-25T23:08:27.303Z,19.10
2022-07-25T23:10:53.928Z,19.18
2022-07-25T23:13:20.531Z,19.16
2022-07-25T23:15:51.024Z,19.14
2022-07-25T23:18:17.899Z,19.17
2022-07-25T23:20:44.565Z,19.28
2022-07-25T23:23:11.060Z,19.36
2022-07-25T23:25:37.501Z,19.30
2022-07-25T23:28:04.233Z,19.33
2022-07-25T23:30:30.745Z,19.29
2022-07-25T23:32:57.372Z,19.27
2022-07-25T23:35:24.162Z,19.24
2022-07-25T23:37:50.653Z,19.31
2022-07-25T23:40:17.239Z,19.31
2022-07-25T23:42:43.813Z,19.26
2022-07-25T23:45:10.711Z,19.24
2022-07-25T23:47:39.566Z,19.14
2022-07-25T23:50:08.409Z,18.98
2022-07-25T23:52:34.914Z,18.87
2022-07-25T23:55:01.556Z,18.80
2022-07-25T23:57:28.061Z,18.79
2022-07-25T23:59:54.634Z,18.72
